sensor_id;sensor_type;location;lat;lon;timestamp;temperature;humidity
37956;DHT22;23776;51.592;7.180;2023-05-10T00:01:11;13.60;99.90
37956;DHT22;23776;51.592;7.180;2023-05-10T00:03:37;13.60;99.90
37956;DHT22;23776;51.592;7.180;2023-05-10T00:06:02;13.60;99.90
37956;DHT22;23776;51.592;7.180;2023-05-10T00:08:28;13.70;99.90
37956;DHT22;23776;51.592;7.180;2023-05-10T00:10:54;13.60;99.90
37956;DHT22;23776;51.592;7.180;2023-05-10T00:13:19;13.60;99.90
37956;DHT22;23776;51.592;7.180;2023-05-10T00:15:45;13.60;99.90
37956;DHT22;23776;51.592;7.180;2023-05-10T00:18:10;13.60;99.90
37956;DHT22;23776;51.592;7.180;2023-05-10T00:20:36;13.70;99.90
37956;DHT22;23776;51.592;7.180;2023-05-10T00:23:02;13.70;99.90
37956;DHT22;23776;51.592;7.180;2023-05-10T00:25:27;13.70;99.90
37956;DHT22;23776;51.592;7.180;2023-05-10T00:27:53;13.70;99.90
37956;DHT22;23776;51.592;7.180;2023-05-10T00:30:20;13.70;99.90
37956;DHT22;23776;51.592;7.180;2023-05-10T00:32:46;13.70;99.90
37956;DHT22;23776;51.592;7.180;2023-05-10T00:35:13;13.70;99.90
37956;DHT22;23776;51.592;7.180;2023-05-10T00:37:39;13.70;99.90
37956;DHT22;23776;51.592;7.180;2023-05-10T00:40:05;13.70;99.90
37956;DHT22;23776;51.592;7.180;2023-05-10T00:42:31;13.70;99.90
37956;DHT22;23776;51.592;7.180;2023-05-10T00:44:56;13.60;99.90
37956;DHT22;23776;51.592;7.180;2023-05-10T00:47:23;13.60;99.90
37956;DHT22;23776;51.592;7.180;2023-05-10T00:49:48;13.60;99.90
37956;DHT22;23776;51.592;7.180;2023-05-10T00:52:14;13.70;99.90
37956;DHT22;23776;51.592;7.180;2023-05-10T00:54:40;13.70;99.90
37956;DHT22;23776;51.592;7.180;2023-05-10T00:57:06;13.60;99.90
37956;DHT22;23776;51.592;7.180;2023-05-10T00:59:32;13.60;99.90
37956;DHT22;23776;51.592;7.180;2023-05-10T01:01:58;13.50;99.90
37956;DHT22;23776;51.592;7.180;2023-05-10T01:04:24;13.50;99.90
37956;DHT22;23776;51.592;7.180;2023-05-10T01:06:51;13.50;99.90
37956;DHT22;23776;51.592;7.180;2023-05-10T01:09:18;13.50;99.90
37956;DHT22;23776;51.592;7.180;2023-05-10T01:11:44;13.50;99.90
37956;DHT22;23776;51.592;7.180;2023-05-10T01:14:10;13.50;99.90
37956;DHT22;23776;51.592;7.180;2023-05-10T01:16:38;13.60;99.90
37956;DHT22;23776;51.592;7.180;2023-05-10T01:19:32;13.40;99.90
37956;DHT22;23776;51.592;7.180;2023-05-10T01:36:03;13.40;99.90
37956;DHT22;23776;51.592;7.180;2023-05-10T01:38:43;13.30;99.90
37956;DHT22;23776;51.592;7.180;2023-05-10T01:41:21;13.20;99.90
37956;DHT22;23776;51.592;7.180;2023-05-10T01:43:53;13.20;99.90
37956;DHT22;23776;51.592;7.180;2023-05-10T01:46:28;13.20;99.90
37956;DHT22;23776;51.592;7.180;2023-05-10T01:48:56;13.20;99.90
37956;DHT22;23776;51.592;7.180;2023-05-10T01:51:29;13.00;99.90
37956;DHT22;23776;51.592;7.180;2023-05-10T01:54:02;13.00;99.90
37956;DHT22;23776;51.592;7.180;2023-05-10T01:56:30;13.00;99.90
37956;DHT22;23776;51.592;7.180;2023-05-10T01:58:57;12.90;99.90
37956;DHT22;23776;51.592;7.180;2023-05-10T02:01:24;13.00;99.90
37956;DHT22;23776;51.592;7.180;2023-05-10T02:03:51;12.90;99.90
37956;DHT22;23776;51.592;7.180;2023-05-10T02:06:19;13.00;99.90
37956;DHT22;23776;51.592;7.180;2023-05-10T02:08:46;13.00;99.90
37956;DHT22;23776;51.592;7.180;2023-05-10T02:11:13;12.90;99.90
37956;DHT22;23776;51.592;7.180;2023-05-10T02:13:39;12.90;99.90
37956;DHT22;23776;51.592;7.180;2023-05-10T02:16:07;12.80;99.90
37956;DHT22;23776;51.592;7.180;2023-05-10T02:18:34;12.80;99.90
37956;DHT22;23776;51.592;7.180;2023-05-10T02:21:02;12.80;99.90
37956;DHT22;23776;51.592;7.180;2023-05-10T02:23:29;12.80;99.90
37956;DHT22;23776;51.592;7.180;2023-05-10T02:25:57;12.80;99.90
37956;DHT22;23776;51.592;7.180;2023-05-10T02:28:24;12.80;99.90
37956;DHT22;23776;51.592;7.180;2023-05-10T02:30:52;12.80;99.90
37956;DHT22;23776;51.592;7.180;2023-05-10T02:33:19;12.70;99.90
37956;DHT22;23776;51.592;7.180;2023-05-10T02:35:46;12.80;99.90
37956;DHT22;23776;51.592;7.180;2023-05-10T02:38:13;12.80;99.90
37956;DHT22;23776;51.592;7.180;2023-05-10T02:40:41;12.70;99.90
37956;DHT22;23776;51.592;7.180;2023-05-10T02:43:11;13.70;99.90
37956;DHT22;23776;51.592;7.180;2023-05-10T02:45:38;12.70;99.90
37956;DHT22;23776;51.592;7.180;2023-05-10T02:48:05;12.70;99.90
37956;DHT22;23776;51.592;7.180;2023-05-10T02:50:33;12.80;99.90
37956;DHT22;23776;51.592;7.180;2023-05-10T02:53:09;12.80;99.90
37956;DHT22;23776;51.592;7.180;2023-05-10T02:55:38;12.90;99.90
37956;DHT22;23776;51.592;7.180;2023-05-10T02:58:06;12.80;99.90
37956;DHT22;23776;51.592;7.180;2023-05-10T03:00:32;12.90;99.90
37956;DHT22;23776;51.592;7.180;2023-05-10T03:02:58;12.90;99.90
37956;DHT22;23776;51.592;7.180;2023-05-10T03:05:24;12.90;99.90
37956;DHT22;23776;51.592;7.180;2023-05-10T03:07:49;12.90;99.90
37956;DHT22;23776;51.592;7.180;2023-05-10T03:10:16;13.00;99.90
37956;DHT22;23776;51.592;7.180;2023-05-10T03:13:01;13.90;99.90
37956;DHT22;23776;51.592;7.180;2023-05-10T03:18:18;13.00;99.90
37956;DHT22;23776;51.592;7.180;2023-05-10T03:20:48;13.10;99.90
37956;DHT22;23776;51.592;7.180;2023-05-10T03:23:30;13.00;99.90
37956;DHT22;23776;51.592;7.180;2023-05-10T03:25:58;13.00;99.90
37956;DHT22;23776;51.592;7.180;2023-05-10T03:28:25;13.10;99.90
37956;DHT22;23776;51.592;7.180;2023-05-10T03:30:53;13.10;99.90
37956;DHT22;23776;51.592;7.180;2023-05-10T03:33:19;13.10;99.90
37956;DHT22;23776;51.592;7.180;2023-05-10T03:35:45;13.20;99.90
37956;DHT22;23776;51.592;7.180;2023-05-10T03:38:14;13.20;99.90
37956;DHT22;23776;51.592;7.180;2023-05-10T03:40:40;13.10;99.90
37956;DHT22;23776;51.592;7.180;2023-05-10T03:43:05;12.00;99.90
37956;DHT22;23776;51.592;7.180;2023-05-10T03:45:31;13.10;99.90
37956;DHT22;23776;51.592;7.180;2023-05-10T03:47:58;13.20;99.90
37956;DHT22;23776;51.592;7.180;2023-05-10T03:50:24;13.10;99.90
37956;DHT22;23776;51.592;7.180;2023-05-10T03:52:49;13.10;99.90
37956;DHT22;23776;51.592;7.180;2023-05-10T03:55:15;13.10;99.90
37956;DHT22;23776;51.592;7.180;2023-05-10T03:57:42;13.10;99.90
37956;DHT22;23776;51.592;7.180;2023-05-10T04:00:08;13.10;99.90
37956;DHT22;23776;51.592;7.180;2023-05-10T04:02:34;13.10;99.90
37956;DHT22;23776;51.592;7.180;2023-05-10T04:04:59;15.00;99.90
37956;DHT22;23776;51.592;7.180;2023-05-10T04:07:25;13.20;99.90
37956;DHT22;23776;51.592;7.180;2023-05-10T04:09:51;13.20;99.90
37956;DHT22;23776;51.592;7.180;2023-05-10T04:12:16;13.20;99.90
37956;DHT22;23776;51.592;7.180;2023-05-10T04:14:42;13.20;99.90
37956;DHT22;23776;51.592;7.180;2023-05-10T04:17:07;13.10;99.90
37956;DHT22;23776;51.592;7.180;2023-05-10T04:19:33;13.10;99.90
37956;DHT22;23776;51.592;7.180;2023-05-10T04:21:59;13.10;99.90
37956;DHT22;23776;51.592;7.180;2023-05-10T04:24:25;13.10;99.90
37956;DHT22;23776;51.592;7.180;2023-05-10T04:26:50;13.10;99.90
37956;DHT22;23776;51.592;7.180;2023-05-10T04:29:16;13.20;99.90
37956;DHT22;23776;51.592;7.180;2023-05-10T04:31:42;13.20;99.90
37956;DHT22;23776;51.592;7.180;2023-05-10T04:34:07;13.20;99.90
37956;DHT22;23776;51.592;7.180;2023-05-10T04:36:33;13.20;99.90
37956;DHT22;23776;51.592;7.180;2023-05-10T04:39:01;13.20;99.90
37956;DHT22;23776;51.592;7.180;2023-05-10T04:41:28;13.20;99.90
37956;DHT22;23776;51.592;7.180;2023-05-10T04:43:54;13.20;99.90
37956;DHT22;23776;51.592;7.180;2023-05-10T04:46:19;13.30;99.90
37956;DHT22;23776;51.592;7.180;2023-05-10T04:48:45;13.30;99.90
37956;DHT22;23776;51.592;7.180;2023-05-10T04:51:10;13.30;99.90
37956;DHT22;23776;51.592;7.180;2023-05-10T04:53:36;13.30;99.90
37956;DHT22;23776;51.592;7.180;2023-05-10T04:56:02;13.30;99.90
37956;DHT22;23776;51.592;7.180;2023-05-10T04:58:27;13.30;99.90
37956;DHT22;23776;51.592;7.180;2023-05-10T05:03:19;13.30;99.90
37956;DHT22;23776;51.592;7.180;2023-05-10T05:05:44;13.30;99.90
37956;DHT22;23776;51.592;7.180;2023-05-10T05:08:10;13.40;99.90
37956;DHT22;23776;51.592;7.180;2023-05-10T05:10:36;13.40;99.90
37956;DHT22;23776;51.592;7.180;2023-05-10T05:13:01;13.40;99.90
37956;DHT22;23776;51.592;7.180;2023-05-10T05:15:27;13.30;99.90
37956;DHT22;23776;51.592;7.180;2023-05-10T05:17:53;13.20;99.90
37956;DHT22;23776;51.592;7.180;2023-05-10T05:20:19;13.30;99.90
37956;DHT22;23776;51.592;7.180;2023-05-10T05:22:44;13.30;99.90
37956;DHT22;23776;51.592;7.180;2023-05-10T05:25:10;13.40;99.90
37956;DHT22;23776;51.592;7.180;2023-05-10T05:27:37;13.40;99.90
37956;DHT22;23776;51.592;7.180;2023-05-10T05:30:03;13.40;99.90
37956;DHT22;23776;51.592;7.180;2023-05-10T05:32:29;13.40;99.90
37956;DHT22;23776;51.592;7.180;2023-05-10T05:34:55;13.40;99.90
37956;DHT22;23776;51.592;7.180;2023-05-10T05:37:21;13.40;99.90
37956;DHT22;23776;51.592;7.180;2023-05-10T05:39:48;13.40;99.90
37956;DHT22;23776;51.592;7.180;2023-05-10T05:42:14;13.40;99.90
37956;DHT22;23776;51.592;7.180;2023-05-10T05:44:40;13.40;99.90
37956;DHT22;23776;51.592;7.180;2023-05-10T05:47:06;13.40;99.90
37956;DHT22;23776;51.592;7.180;2023-05-10T05:49:32;13.30;99.90
37956;DHT22;23776;51.592;7.180;2023-05-10T05:52:01;13.40;99.90
37956;DHT22;23776;51.592;7.180;2023-05-10T05:54:27;13.40;99.90
37956;DHT22;23776;51.592;7.180;2023-05-10T05:56:57;13.40;99.90
37956;DHT22;23776;51.592;7.180;2023-05-10T05:59:23;13.40;99.90
37956;DHT22;23776;51.592;7.180;2023-05-10T06:01:49;13.40;99.90
37956;DHT22;23776;51.592;7.180;2023-05-10T06:04:14;13.40;99.90
37956;DHT22;23776;51.592;7.180;2023-05-10T06:06:40;13.40;99.90
37956;DHT22;23776;51.592;7.180;2023-05-10T06:09:06;13.40;99.90
37956;DHT22;23776;51.592;7.180;2023-05-10T06:11:32;13.50;99.90
37956;DHT22;23776;51.592;7.180;2023-05-10T06:13:58;13.50;99.90
37956;DHT22;23776;51.592;7.180;2023-05-10T06:16:24;13.40;99.90
37956;DHT22;23776;51.592;7.180;2023-05-10T06:18:50;13.40;99.90
37956;DHT22;23776;51.592;7.180;2023-05-10T06:21:16;13.50;99.90
37956;DHT22;23776;51.592;7.180;2023-05-10T06:23:42;13.80;99.90
37956;DHT22;23776;51.592;7.180;2023-05-10T06:26:07;13.50;99.90
37956;DHT22;23776;51.592;7.180;2023-05-10T06:28:33;13.50;99.90
37956;DHT22;23776;51.592;7.180;2023-05-10T06:30:59;13.60;99.90
37956;DHT22;23776;51.592;7.180;2023-05-10T06:33:25;13.60;99.90
37956;DHT22;23776;51.592;7.180;2023-05-10T06:35:51;13.60;99.90
37956;DHT22;23776;51.592;7.180;2023-05-10T06:38:16;13.70;99.90
37956;DHT22;23776;51.592;7.180;2023-05-10T06:40:42;13.70;99.90
37956;DHT22;23776;51.592;7.180;2023-05-10T06:43:08;13.80;99.90
37956;DHT22;23776;51.592;7.180;2023-05-10T06:45:34;13.80;99.90
37956;DHT22;23776;51.592;7.180;2023-05-10T06:48:00;13.80;99.80
37956;DHT22;23776;51.592;7.180;2023-05-10T06:50:26;13.80;99.70
37956;DHT22;23776;51.592;7.180;2023-05-10T06:52:52;13.80;98.70
37956;DHT22;23776;51.592;7.180;2023-05-10T06:55:17;13.90;99.20
37956;DHT22;23776;51.592;7.180;2023-05-10T06:57:43;14.10;99.50
37956;DHT22;23776;51.592;7.180;2023-05-10T07:00:08;15.20;99.20
37956;DHT22;23776;51.592;7.180;2023-05-10T07:02:35;13.00;97.70
37956;DHT22;23776;51.592;7.180;2023-05-10T07:05:01;14.40;98.10
37956;DHT22;23776;51.592;7.180;2023-05-10T07:07:27;14.50;97.90
37956;DHT22;23776;51.592;7.180;2023-05-10T07:09:53;14.80;96.60
37956;DHT22;23776;51.592;7.180;2023-05-10T07:12:18;14.40;95.40
37956;DHT22;23776;51.592;7.180;2023-05-10T07:14:44;14.90;95.40
37956;DHT22;23776;51.592;7.180;2023-05-10T07:17:10;14.40;94.90
37956;DHT22;23776;51.592;7.180;2023-05-10T07:19:36;14.80;94.50
37956;DHT22;23776;51.592;7.180;2023-05-10T07:22:02;14.70;94.90
37956;DHT22;23776;51.592;7.180;2023-05-10T07:24:28;14.80;92.00
37956;DHT22;23776;51.592;7.180;2023-05-10T07:26:53;15.00;92.80
37956;DHT22;23776;51.592;7.180;2023-05-10T07:29:19;15.10;92.80
37956;DHT22;23776;51.592;7.180;2023-05-10T07:31:44;15.10;92.40
37956;DHT22;23776;51.592;7.180;2023-05-10T07:34:10;15.20;90.80
37956;DHT22;23776;51.592;7.180;2023-05-10T07:36:35;15.20;87.40
37956;DHT22;23776;51.592;7.180;2023-05-10T07:39:01;15.30;90.60
37956;DHT22;23776;51.592;7.180;2023-05-10T07:41:27;15.50;90.10
37956;DHT22;23776;51.592;7.180;2023-05-10T07:43:53;15.50;90.30
37956;DHT22;23776;51.592;7.180;2023-05-10T07:46:18;15.70;90.00
37956;DHT22;23776;51.592;7.180;2023-05-10T07:48:45;15.60;86.10
37956;DHT22;23776;51.592;7.180;2023-05-10T07:51:11;15.50;74.20
37956;DHT22;23776;51.592;7.180;2023-05-10T07:53:37;15.50;74.60
37956;DHT22;23776;51.592;7.180;2023-05-10T07:56:22;15.40;77.30
37956;DHT22;23776;51.592;7.180;2023-05-10T07:58:48;15.30;65.60
37956;DHT22;23776;51.592;7.180;2023-05-10T08:01:14;15.10;74.60
37956;DHT22;23776;51.592;7.180;2023-05-10T08:03:39;15.10;76.10
37956;DHT22;23776;51.592;7.180;2023-05-10T08:06:05;15.20;81.40
37956;DHT22;23776;51.592;7.180;2023-05-10T08:08:31;15.40;82.30
37956;DHT22;23776;51.592;7.180;2023-05-10T08:10:56;15.80;71.30
37956;DHT22;23776;51.592;7.180;2023-05-10T08:13:22;15.70;71.60
37956;DHT22;23776;51.592;7.180;2023-05-10T08:15:47;16.00;62.90
37956;DHT22;23776;51.592;7.180;2023-05-10T08:18:13;15.80;38.50
37956;DHT22;23776;51.592;7.180;2023-05-10T08:20:39;16.30;54.00
37956;DHT22;23776;51.592;7.180;2023-05-10T08:23:04;16.10;40.40
37956;DHT22;23776;51.592;7.180;2023-05-10T08:25:31;16.30;37.40
37956;DHT22;23776;51.592;7.180;2023-05-10T08:27:57;16.20;28.30
37956;DHT22;23776;51.592;7.180;2023-05-10T08:30:22;16.10;22.60
37956;DHT22;23776;51.592;7.180;2023-05-10T08:32:48;16.00;21.50
37956;DHT22;23776;51.592;7.180;2023-05-10T08:35:13;15.80;13.70
37956;DHT22;23776;51.592;7.180;2023-05-10T08:37:39;15.80;26.60
37956;DHT22;23776;51.592;7.180;2023-05-10T08:40:05;15.70;35.00
37956;DHT22;23776;51.592;7.180;2023-05-10T08:42:34;15.70;37.50
37956;DHT22;23776;51.592;7.180;2023-05-10T08:45:02;15.60;38.70
37956;DHT22;23776;51.592;7.180;2023-05-10T08:47:29;15.70;41.30
37956;DHT22;23776;51.592;7.180;2023-05-10T08:49:55;13.40;42.60
37956;DHT22;23776;51.592;7.180;2023-05-10T08:52:24;15.90;36.60
37956;DHT22;23776;51.592;7.180;2023-05-10T08:54:51;15.80;34.10
37956;DHT22;23776;51.592;7.180;2023-05-10T08:57:17;16.00;36.50
37956;DHT22;23776;51.592;7.180;2023-05-10T08:59:44;17.80;36.50
37956;DHT22;23776;51.592;7.180;2023-05-10T09:02:10;16.00;31.60
37956;DHT22;23776;51.592;7.180;2023-05-10T09:04:37;16.10;28.30
37956;DHT22;23776;51.592;7.180;2023-05-10T09:07:02;16.10;28.10
37956;DHT22;23776;51.592;7.180;2023-05-10T09:09:28;16.20;32.10
37956;DHT22;23776;51.592;7.180;2023-05-10T09:11:54;16.30;23.70
37956;DHT22;23776;51.592;7.180;2023-05-10T09:14:20;16.30;17.40
37956;DHT22;23776;51.592;7.180;2023-05-10T09:16:47;16.20;21.50
37956;DHT22;23776;51.592;7.180;2023-05-10T09:19:13;16.50;21.20
37956;DHT22;23776;51.592;7.180;2023-05-10T09:21:39;16.30;13.50
37956;DHT22;23776;51.592;7.180;2023-05-10T09:24:08;16.40;1.00
37956;DHT22;23776;51.592;7.180;2023-05-10T09:26:35;16.60;1.00
37956;DHT22;23776;51.592;7.180;2023-05-10T09:29:01;16.80;1.00
37956;DHT22;23776;51.592;7.180;2023-05-10T09:31:47;17.10;1.00
37956;DHT22;23776;51.592;7.180;2023-05-10T09:34:17;17.10;1.00
37956;DHT22;23776;51.592;7.180;2023-05-10T09:37:00;17.10;1.00
37956;DHT22;23776;51.592;7.180;2023-05-10T09:39:33;17.40;1.00
37956;DHT22;23776;51.592;7.180;2023-05-10T09:42:01;17.40;1.00
37956;DHT22;23776;51.592;7.180;2023-05-10T09:44:29;17.40;1.00
37956;DHT22;23776;51.592;7.180;2023-05-10T09:46:54;17.40;1.00
37956;DHT22;23776;51.592;7.180;2023-05-10T09:49:23;17.50;1.00
37956;DHT22;23776;51.592;7.180;2023-05-10T09:52:02;17.50;1.00
37956;DHT22;23776;51.592;7.180;2023-05-10T09:54:28;17.60;1.00
37956;DHT22;23776;51.592;7.180;2023-05-10T09:56:54;17.60;1.00
37956;DHT22;23776;51.592;7.180;2023-05-10T09:59:20;17.60;1.00
37956;DHT22;23776;51.592;7.180;2023-05-10T10:01:52;17.50;1.00
37956;DHT22;23776;51.592;7.180;2023-05-10T10:04:20;17.30;1.00
37956;DHT22;23776;51.592;7.180;2023-05-10T10:06:45;17.20;1.00
37956;DHT22;23776;51.592;7.180;2023-05-10T10:09:11;17.10;1.00
37956;DHT22;23776;51.592;7.180;2023-05-10T10:11:38;16.90;1.00
37956;DHT22;23776;51.592;7.180;2023-05-10T10:14:04;16.60;1.00
37956;DHT22;23776;51.592;7.180;2023-05-10T10:16:31;17.00;1.00
37956;DHT22;23776;51.592;7.180;2023-05-10T10:18:57;16.50;1.00
37956;DHT22;23776;51.592;7.180;2023-05-10T10:21:23;16.40;9.90
37956;DHT22;23776;51.592;7.180;2023-05-10T10:23:49;16.30;17.90
37956;DHT22;23776;51.592;7.180;2023-05-10T10:26:16;16.30;24.30
37956;DHT22;23776;51.592;7.180;2023-05-10T10:31:40;16.10;22.70
37956;DHT22;23776;51.592;7.180;2023-05-10T10:34:09;16.10;24.50
37956;DHT22;23776;51.592;7.180;2023-05-10T10:36:44;16.00;12.20
37956;DHT22;23776;51.592;7.180;2023-05-10T10:39:11;16.10;34.60
37956;DHT22;23776;51.592;7.180;2023-05-10T10:41:49;16.40;27.80
37956;DHT22;23776;51.592;7.180;2023-05-10T10:49:51;16.40;1.00
37956;DHT22;23776;51.592;7.180;2023-05-10T10:52:30;16.40;1.00
37956;DHT22;23776;51.592;7.180;2023-05-10T10:55:20;16.60;1.00
37956;DHT22;23776;51.592;7.180;2023-05-10T10:57:55;16.90;1.00
37956;DHT22;23776;51.592;7.180;2023-05-10T11:03:10;17.20;1.00
37956;DHT22;23776;51.592;7.180;2023-05-10T11:05:48;17.30;1.00
37956;DHT22;23776;51.592;7.180;2023-05-10T11:08:32;17.30;1.00
37956;DHT22;23776;51.592;7.180;2023-05-10T11:11:05;17.00;1.00
37956;DHT22;23776;51.592;7.180;2023-05-10T11:13:40;17.00;1.00
37956;DHT22;23776;51.592;7.180;2023-05-10T11:18:39;16.60;1.00
37956;DHT22;23776;51.592;7.180;2023-05-10T11:21:08;16.50;1.00
37956;DHT22;23776;51.592;7.180;2023-05-10T11:23:57;16.50;1.00
37956;DHT22;23776;51.592;7.180;2023-05-10T11:26:34;16.50;1.00
37956;DHT22;23776;51.592;7.180;2023-05-10T11:29:00;16.60;1.00
37956;DHT22;23776;51.592;7.180;2023-05-10T11:31:27;16.60;1.00
37956;DHT22;23776;51.592;7.180;2023-05-10T11:33:55;16.70;1.00
37956;DHT22;23776;51.592;7.180;2023-05-10T11:36:25;16.70;1.00
37956;DHT22;23776;51.592;7.180;2023-05-10T11:38:51;16.90;1.00
37956;DHT22;23776;51.592;7.180;2023-05-10T11:41:18;17.10;1.00
37956;DHT22;23776;51.592;7.180;2023-05-10T11:43:46;17.30;1.00
37956;DHT22;23776;51.592;7.180;2023-05-10T11:46:14;17.30;1.00
37956;DHT22;23776;51.592;7.180;2023-05-10T11:48:41;17.40;1.00
37956;DHT22;23776;51.592;7.180;2023-05-10T11:51:11;17.60;99.90
37956;DHT22;23776;51.592;7.180;2023-05-10T11:53:36;17.70;99.90
37956;DHT22;23776;51.592;7.180;2023-05-10T11:56:10;17.80;99.90
37956;DHT22;23776;51.592;7.180;2023-05-10T11:58:38;18.00;99.90
37956;DHT22;23776;51.592;7.180;2023-05-10T12:01:07;18.00;99.90
37956;DHT22;23776;51.592;7.180;2023-05-10T12:03:33;18.00;99.90
37956;DHT22;23776;51.592;7.180;2023-05-10T12:06:00;18.00;99.90
37956;DHT22;23776;51.592;7.180;2023-05-10T12:08:27;18.20;99.90
37956;DHT22;23776;51.592;7.180;2023-05-10T12:11:04;18.40;99.90
37956;DHT22;23776;51.592;7.180;2023-05-10T12:13:30;18.30;99.90
37956;DHT22;23776;51.592;7.180;2023-05-10T12:15:59;18.40;99.90
37956;DHT22;23776;51.592;7.180;2023-05-10T12:18:25;18.10;66.40
37956;DHT22;23776;51.592;7.180;2023-05-10T12:20:54;18.00;99.90
37956;DHT22;23776;51.592;7.180;2023-05-10T12:23:28;17.90;99.90
37956;DHT22;23776;51.592;7.180;2023-05-10T12:25:53;17.70;99.90
37956;DHT22;23776;51.592;7.180;2023-05-10T12:28:19;17.50;99.90
37956;DHT22;23776;51.592;7.180;2023-05-10T12:30:45;17.20;99.90
37956;DHT22;23776;51.592;7.180;2023-05-10T12:33:12;17.20;99.90
37956;DHT22;23776;51.592;7.180;2023-05-10T12:38:35;17.20;99.90
37956;DHT22;23776;51.592;7.180;2023-05-10T12:41:04;16.80;1.00
37956;DHT22;23776;51.592;7.180;2023-05-10T12:43:30;16.70;1.00
37956;DHT22;23776;51.592;7.180;2023-05-10T12:45:56;16.80;1.00
37956;DHT22;23776;51.592;7.180;2023-05-10T12:48:22;17.00;1.00
37956;DHT22;23776;51.592;7.180;2023-05-10T12:50:48;17.10;99.90
37956;DHT22;23776;51.592;7.180;2023-05-10T12:53:14;17.00;1.00
37956;DHT22;23776;51.592;7.180;2023-05-10T12:55:43;18.40;1.00
37956;DHT22;23776;51.592;7.180;2023-05-10T12:58:09;17.20;1.00
37956;DHT22;23776;51.592;7.180;2023-05-10T13:00:35;17.50;99.90
37956;DHT22;23776;51.592;7.180;2023-05-10T13:03:06;17.80;99.90
37956;DHT22;23776;51.592;7.180;2023-05-10T13:05:34;17.80;99.90
37956;DHT22;23776;51.592;7.180;2023-05-10T13:08:00;18.10;99.90
37956;DHT22;23776;51.592;7.180;2023-05-10T13:10:25;18.20;16.40
37956;DHT22;23776;51.592;7.180;2023-05-10T13:12:51;18.40;99.90
37956;DHT22;23776;51.592;7.180;2023-05-10T13:15:17;18.50;1.00
37956;DHT22;23776;51.592;7.180;2023-05-10T13:17:42;18.70;41.90
37956;DHT22;23776;51.592;7.180;2023-05-10T13:20:09;19.00;1.00
37956;DHT22;23776;51.592;7.180;2023-05-10T13:22:35;19.20;1.00
37956;DHT22;23776;51.592;7.180;2023-05-10T13:25:01;20.50;99.90
37956;DHT22;23776;51.592;7.180;2023-05-10T13:27:27;19.70;99.90
37956;DHT22;23776;51.592;7.180;2023-05-10T13:29:52;20.30;99.90
37956;DHT22;23776;51.592;7.180;2023-05-10T13:32:18;20.30;99.90
37956;DHT22;23776;51.592;7.180;2023-05-10T13:34:44;20.20;2.20
37956;DHT22;23776;51.592;7.180;2023-05-10T13:37:09;20.30;99.90
37956;DHT22;23776;51.592;7.180;2023-05-10T13:39:35;20.60;1.00
37956;DHT22;23776;51.592;7.180;2023-05-10T13:42:03;20.90;99.90
37956;DHT22;23776;51.592;7.180;2023-05-10T13:44:28;21.30;1.00
37956;DHT22;23776;51.592;7.180;2023-05-10T13:46:54;21.50;1.00
37956;DHT22;23776;51.592;7.180;2023-05-10T13:49:20;21.80;11.20
37956;DHT22;23776;51.592;7.180;2023-05-10T13:51:47;21.70;99.90
37956;DHT22;23776;51.592;7.180;2023-05-10T13:54:13;21.70;1.00
37956;DHT22;23776;51.592;7.180;2023-05-10T13:56:38;21.60;99.90
37956;DHT22;23776;51.592;7.180;2023-05-10T13:59:04;21.30;1.00
37956;DHT22;23776;51.592;7.180;2023-05-10T14:01:30;21.40;9.00
37956;DHT22;23776;51.592;7.180;2023-05-10T14:03:56;21.10;99.90
37956;DHT22;23776;51.592;7.180;2023-05-10T14:06:22;21.20;99.90
37956;DHT22;23776;51.592;7.180;2023-05-10T14:08:47;21.20;99.90
37956;DHT22;23776;51.592;7.180;2023-05-10T14:11:13;20.80;99.90
37956;DHT22;23776;51.592;7.180;2023-05-10T14:13:39;20.80;99.90
37956;DHT22;23776;51.592;7.180;2023-05-10T14:16:05;21.20;99.90
37956;DHT22;23776;51.592;7.180;2023-05-10T14:18:31;22.80;99.90
37956;DHT22;23776;51.592;7.180;2023-05-10T14:20:56;23.60;1.00
37956;DHT22;23776;51.592;7.180;2023-05-10T14:23:22;23.70;99.90
37956;DHT22;23776;51.592;7.180;2023-05-10T14:25:51;24.40;99.90
37956;DHT22;23776;51.592;7.180;2023-05-10T14:28:18;25.40;99.90
37956;DHT22;23776;51.592;7.180;2023-05-10T14:30:44;25.60;99.90
37956;DHT22;23776;51.592;7.180;2023-05-10T14:33:09;25.10;99.90
37956;DHT22;23776;51.592;7.180;2023-05-10T14:35:35;25.80;99.90
37956;DHT22;23776;51.592;7.180;2023-05-10T14:38:02;26.30;99.90
37956;DHT22;23776;51.592;7.180;2023-05-10T14:40:29;24.80;99.90
37956;DHT22;23776;51.592;7.180;2023-05-10T14:42:54;23.70;99.90
37956;DHT22;23776;51.592;7.180;2023-05-10T14:45:20;22.90;99.90
37956;DHT22;23776;51.592;7.180;2023-05-10T14:47:46;22.40;99.90
37956;DHT22;23776;51.592;7.180;2023-05-10T14:50:12;21.70;99.90
37956;DHT22;23776;51.592;7.180;2023-05-10T14:52:37;21.20;1.00
37956;DHT22;23776;51.592;7.180;2023-05-10T14:55:03;21.00;1.00
37956;DHT22;23776;51.592;7.180;2023-05-10T14:57:29;21.60;1.00
37956;DHT22;23776;51.592;7.180;2023-05-10T14:59:55;21.70;1.00
37956;DHT22;23776;51.592;7.180;2023-05-10T15:02:21;21.50;1.00
37956;DHT22;23776;51.592;7.180;2023-05-10T15:04:47;21.20;74.40
37956;DHT22;23776;51.592;7.180;2023-05-10T15:07:13;20.80;99.90
37956;DHT22;23776;51.592;7.180;2023-05-10T15:09:40;20.30;99.90
37956;DHT22;23776;51.592;7.180;2023-05-10T15:12:06;20.10;1.00
37956;DHT22;23776;51.592;7.180;2023-05-10T15:14:33;20.10;1.00
37956;DHT22;23776;51.592;7.180;2023-05-10T15:16:59;20.00;17.00
37956;DHT22;23776;51.592;7.180;2023-05-10T15:19:25;19.90;99.90
37956;DHT22;23776;51.592;7.180;2023-05-10T15:21:50;19.60;99.90
37956;DHT22;23776;51.592;7.180;2023-05-10T15:24:16;19.50;99.90
37956;DHT22;23776;51.592;7.180;2023-05-10T15:26:42;19.40;9.70
37956;DHT22;23776;51.592;7.180;2023-05-10T15:29:07;20.00;81.20
37956;DHT22;23776;51.592;7.180;2023-05-10T15:31:33;20.80;96.90
37956;DHT22;23776;51.592;7.180;2023-05-10T15:34:01;22.20;1.00
37956;DHT22;23776;51.592;7.180;2023-05-10T15:36:26;23.00;99.90
37956;DHT22;23776;51.592;7.180;2023-05-10T15:41:20;24.20;1.00
37956;DHT22;23776;51.592;7.180;2023-05-10T15:43:46;23.60;1.00
37956;DHT22;23776;51.592;7.180;2023-05-10T15:46:11;23.50;1.00
37956;DHT22;23776;51.592;7.180;2023-05-10T15:48:37;22.20;1.00
37956;DHT22;23776;51.592;7.180;2023-05-10T15:51:04;21.20;1.00
37956;DHT22;23776;51.592;7.180;2023-05-10T15:53:30;21.20;1.00
37956;DHT22;23776;51.592;7.180;2023-05-10T15:55:55;20.90;49.90
37956;DHT22;23776;51.592;7.180;2023-05-10T15:58:21;20.60;99.90
37956;DHT22;23776;51.592;7.180;2023-05-10T16:00:46;17.70;99.90
37956;DHT22;23776;51.592;7.180;2023-05-10T16:03:12;20.20;99.90
37956;DHT22;23776;51.592;7.180;2023-05-10T16:05:38;20.10;99.90
37956;DHT22;23776;51.592;7.180;2023-05-10T16:08:03;20.00;1.00
37956;DHT22;23776;51.592;7.180;2023-05-10T16:10:31;19.80;1.00
37956;DHT22;23776;51.592;7.180;2023-05-10T16:12:57;19.70;90.00